Time;durP1;ratioP1;P1;durP2;ratioP2;P2;SDS_P1;SDS_P2;PMS_P1;PMS_P2;Temp;Humidity;BMP_temperature;BMP_pressure;BME280_temperature;BME280_humidity;BME280_pressure;Samples;Min_cycle;Max_cycle;Signal;HPM_P1;HPM_P2
2022/11/04 00:01:40;;;;;;;22.80;15.17;;;;;;;13.98;82.98;99674.06;5112484;28;20290;-61
2022/11/04 00:04:07;;;;;;;20.13;14.40;;;;;;;13.96;83.37;99676.72;5112401;28;20210;-61
2022/11/04 00:06:36;;;;;;;23.93;14.37;;;;;;;13.87;83.76;99671.03;5112301;28;20697;-61
2022/11/04 00:09:05;;;;;;;29.07;15.43;;;;;;;13.88;84.19;99670.13;5112339;28;20198;-62
2022/11/04 00:14:17;;;;;;;22.53;14.27;;;;;;;13.90;84.13;99676.94;5112404;28;20193;-61
2022/11/04 00:28:41;;;;;;;22.60;14.27;;;;;;;13.79;84.98;99664.34;5112228;28;20221;-60
2022/11/04 00:30:30;;;;;;;22.60;14.80;;;;;;;13.74;85.95;99662.84;5112395;28;20201;-60
2022/11/04 00:35:41;;;;;;;19.40;14.30;;;;;;;13.72;86.41;99670.72;5111864;28;20775;-56
2022/11/04 00:38:09;;;;;;;22.00;14.17;;;;;;;13.70;86.55;99672.53;5111983;28;20609;-56
2022/11/04 00:40:36;;;;;;;25.03;15.20;;;;;;;13.69;86.63;99672.59;5111075;28;20198;-56
2022/11/04 00:43:03;;;;;;;21.77;14.10;;;;;;;13.76;86.27;99663.63;5111760;28;20194;-56
2022/11/04 00:45:30;;;;;;;21.53;15.53;;;;;;;13.67;86.71;99671.78;5111805;28;20678;-56
2022/11/04 00:47:57;;;;;;;19.90;14.07;;;;;;;13.62;86.96;99665.91;5111630;28;20584;-56
2022/11/04 00:50:24;;;;;;;22.43;14.40;;;;;;;13.43;87.35;99639.72;5111504;28;20274;-60
2022/11/04 00:52:51;;;;;;;20.23;14.13;;;;;;;13.55;88.09;99667.88;5111440;28;20201;-60
2022/11/04 00:55:19;;;;;;;22.00;15.37;;;;;;;13.48;89.11;99674.25;5111421;28;20190;-59
2022/11/04 00:57:46;;;;;;;23.13;14.57;;;;;;;13.44;89.16;99665.69;5111249;28;20233;-60
2022/11/04 01:00:15;;;;;;;20.23;14.10;;;;;;;13.42;89.59;99666.69;5111351;28;20209;-59
2022/11/04 01:02:41;;;;;;;21.97;14.47;;;;;;;13.49;88.81;99664.69;5111214;28;20578;-60
2022/11/04 01:05:09;;;;;;;18.53;13.53;;;;;;;13.50;89.03;99664.63;5111150;28;20201;-61
2022/11/04 01:07:36;;;;;;;20.37;14.70;;;;;;;13.50;88.55;99659.41;5111426;28;20205;-62
2022/11/04 01:10:03;;;;;;;20.67;13.60;;;;;;;13.51;88.93;99657.66;5111272;28;20194;-60
2022/11/04 01:12:32;;;;;;;23.63;14.87;;;;;;;13.39;89.57;99658.97;5111456;27;20616;-56
2022/11/04 01:14:59;;;;;;;24.30;16.53;;;;;;;13.07;91.91;99647.13;5111137;28;20203;-60
2022/11/04 01:17:25;;;;;;;28.17;17.90;;;;;;;12.98;92.21;99663.91;5110941;28;20650;-61
2022/11/04 01:19:53;;;;;;;29.07;18.60;;;;;;;12.87;91.96;99660.84;5111330;28;20685;-55
2022/11/04 01:22:20;;;;;;;31.97;19.90;;;;;;;12.66;93.00;99661.59;5111206;28;20201;-56
2022/11/04 01:24:46;;;;;;;38.03;20.17;;;;;;;12.48;93.76;99655.28;5110833;28;20418;-56
2022/11/04 01:27:13;;;;;;;33.40;19.43;;;;;;;12.36;93.90;99658.31;5110770;28;20200;-56
2022/11/04 01:29:42;;;;;;;34.83;20.87;;;;;;;12.25;93.99;99650.84;5110816;28;20201;-56
2022/11/04 01:32:09;;;;;;;34.07;21.30;;;;;;;12.18;94.70;99654.59;5110438;28;20220;-55
2022/11/04 01:34:35;;;;;;;39.30;22.30;;;;;;;12.14;94.63;99660.78;5110786;28;20346;-56
2022/11/04 01:37:02;;;;;;;43.23;21.90;;;;;;;12.19;94.73;99645.84;5111027;28;20259;-56
2022/11/04 01:39:29;;;;;;;42.87;23.07;;;;;;;12.30;94.08;99653.31;5110561;28;20303;-54
2022/11/04 01:41:56;;;;;;;36.57;21.33;;;;;;;12.27;94.29;99654.28;5110663;28;20922;-55
2022/11/04 01:44:48;;;;;;;38.67;22.77;;;;;;;12.28;94.29;99661.19;5110495;28;20198;-55
2022/11/04 01:47:17;;;;;;;34.43;20.67;;;;;;;12.24;94.27;99651.75;5110875;28;20686;-56
2022/11/04 01:49:48;;;;;;;41.83;20.63;;;;;;;12.31;93.59;99650.66;5110720;28;20194;-56
2022/11/04 01:52:22;;;;;;;38.63;21.17;;;;;;;12.23;93.57;99652.66;5109539;28;20203;-56
2022/11/04 01:54:51;;;;;;;36.87;20.17;;;;;;;12.09;94.62;99649.66;5110267;28;20240;-55
2022/11/04 01:57:23;;;;;;;35.17;21.00;;;;;;;12.05;94.79;99647.22;5110023;28;20233;-56
2022/11/04 01:59:52;;;;;;;38.47;20.03;;;;;;;11.97;95.36;99647.44;5110557;28;20218;-56
2022/11/04 02:02:19;;;;;;;35.80;20.30;;;;;;;11.97;94.96;99642.25;5110481;27;20729;-56
2022/11/04 02:04:47;;;;;;;31.97;19.83;;;;;;;11.94;95.00;99635.41;5110264;28;20589;-56
2022/11/04 02:07:14;;;;;;;34.10;20.77;;;;;;;12.06;94.32;99641.97;5110255;28;20198;-60
2022/11/04 02:09:42;;;;;;;27.33;18.90;;;;;;;12.04;93.87;99635.13;5110209;28;20191;-60
2022/11/04 02:15:09;;;;;;;31.23;19.23;;;;;;;11.81;95.59;99618.50;5087537;28;20290;-60
2022/11/04 02:17:53;;;;;;;28.73;18.83;;;;;;;11.76;96.24;99614.34;5087495;28;20207;-60
2022/11/04 02:20:30;;;;;;;32.03;18.90;;;;;;;11.70;96.07;99604.97;5099875;28;20222;-55
2022/11/04 02:23:30;;;;;;;35.43;19.33;;;;;;;11.85;95.74;99616.66;5110069;28;20199;-56
2022/11/04 02:26:35;;;;;;;29.47;18.63;;;;;;;11.80;95.83;99613.34;5109974;28;20199;-62
2022/11/04 02:29:33;;;;;;;30.60;19.70;;;;;;;11.77;96.20;99608.25;5110048;28;20273;-59
2022/11/04 02:32:10;;;;;;;30.40;19.47;;;;;;;11.81;96.11;99605.50;5103753;28;20194;-60
2022/11/04 02:34:45;;;;;;;30.63;18.93;;;;;;;11.84;95.96;99605.41;5110106;28;20200;-61
2022/11/04 02:37:33;;;;;;;30.07;18.70;;;;;;;11.74;96.26;99603.13;5110171;28;20200;-59
2022/11/04 02:40:11;;;;;;;32.20;18.87;;;;;;;11.73;96.37;99594.47;5109810;28;20602;-60
2022/11/04 02:42:45;;;;;;;31.30;18.83;;;;;;;11.71;96.62;99606.66;5109831;28;20206;-59
2022/11/04 02:45:19;;;;;;;34.73;19.70;;;;;;;11.64;97.33;99611.19;5109679;28;20205;-59
2022/11/04 02:47:53;;;;;;;35.30;19.37;;;;;;;11.61;97.95;99603.50;5109663;28;20199;-60
2022/11/04 02:50:27;;;;;;;35.03;19.57;;;;;;;11.57;99.16;99608.84;5109792;28;20164;-60
2022/11/04 02:53:00;;;;;;;34.70;20.23;;;;;;;11.47;99.71;99604.81;5109663;28;20291;-60
2022/11/04 02:55:32;;;;;;;30.27;18.60;;;;;;;11.43;99.42;99611.84;5109341;28;20199;-60
2022/11/04 02:58:02;;;;;;;30.43;18.80;;;;;;;11.21;99.12;99575.28;5109763;28;20191;-60
2022/11/04 03:00:32;;;;;;;37.87;19.93;;;;;;;11.26;99.63;99598.53;5109677;28;20233;-60
2022/11/04 03:03:02;;;;;;;32.00;19.10;;;;;;;11.18;99.77;99595.31;5109464;28;20194;-60
2022/11/04 03:05:34;;;;;;;32.87;19.03;;;;;;;11.11;99.57;99601.59;5113195;28;20190;-60
2022/11/04 03:08:04;;;;;;;31.20;19.07;;;;;;;11.04;99.14;99598.34;5113342;28;20562;-59
2022/11/04 03:10:36;;;;;;;29.50;20.17;;;;;;;11.07;98.67;99597.38;5113489;28;20194;-60
2022/11/04 03:13:09;;;;;;;34.27;20.33;;;;;;;11.07;98.66;99594.78;5113430;28;20211;-59
2022/11/04 03:15:40;;;;;;;31.17;20.97;;;;;;;11.09;98.32;99600.78;5113457;28;20219;-59
2022/11/04 03:18:16;;;;;;;38.93;22.60;;;;;;;11.20;98.02;99598.72;5113333;28;20808;-59
2022/11/04 03:20:46;;;;;;;34.63;22.60;;;;;;;11.23;97.70;99609.03;5113905;28;20589;-61
2022/11/04 03:23:14;;;;;;;37.33;22.43;;;;;;;11.16;97.88;99602.31;5113655;28;20685;-55
2022/11/04 03:25:44;;;;;;;35.63;22.23;;;;;;;11.16;98.68;99599.72;5113311;28;20688;-55
2022/11/04 03:28:23;;;;;;;33.37;22.47;;;;;;;11.06;97.62;99603.50;5113155;28;20202;-60
2022/11/04 03:30:56;;;;;;;42.93;22.17;;;;;;;11.01;98.46;99598.41;5113123;28;20603;-60
2022/11/04 03:33:32;;;;;;;38.10;22.93;;;;;;;11.04;97.95;99607.88;5113132;28;20201;-60
2022/11/04 03:36:00;;;;;;;35.07;22.70;;;;;;;11.07;98.09;99613.81;5113151;28;20199;-60
2022/11/04 03:38:27;;;;;;;40.53;23.40;;;;;;;11.02;97.66;99615.72;5113108;28;20581;-59
2022/11/04 03:40:54;;;;;;;46.40;23.87;;;;;;;11.01;97.87;99618.34;5113095;28;20199;-60
2022/11/04 03:43:24;;;;;;;39.07;23.03;;;;;;;11.06;97.05;99612.09;5112733;28;20194;-59
2022/11/04 03:45:53;;;;;;;40.03;23.80;;;;;;;10.99;96.92;99614.94;5112884;28;20194;-59
2022/11/04 03:48:21;;;;;;;35.60;23.67;;;;;;;11.00;96.89;99612.28;5113133;28;20195;-60
2022/11/04 03:50:50;;;;;;;40.57;23.17;;;;;;;10.96;96.37;99613.28;5112546;28;20190;-56
2022/11/04 03:53:21;;;;;;;31.17;20.30;;;;;;;10.92;95.71;99614.28;5113011;28;20194;-60
2022/11/04 03:56:02;;;;;;;29.67;19.47;;;;;;;10.94;95.69;99606.44;5112631;28;20718;-60
2022/11/04 03:58:38;;;;;;;29.43;18.47;;;;;;;10.94;95.00;99602.09;5112483;28;20209;-60
2022/11/04 04:01:18;;;;;;;33.47;18.47;;;;;;;10.99;94.86;99607.16;5112643;28;20214;-60
2022/11/04 04:03:53;;;;;;;29.47;18.50;;;;;;;10.95;94.72;99601.19;5111736;28;20277;-60
2022/11/04 04:06:26;;;;;;;33.40;19.50;;;;;;;10.94;95.24;99599.50;5112299;28;20592;-60
2022/11/04 04:08:57;;;;;;;34.20;20.63;;;;;;;10.83;95.44;99605.00;5112510;28;20194;-60
2022/11/04 04:11:32;;;;;;;39.27;21.83;;;;;;;10.76;96.64;99600.00;5110756;28;20194;-60
2022/11/04 04:14:05;;;;;;;38.33;22.17;;;;;;;10.75;96.74;99606.09;5092006;28;20194;-60
2022/11/04 04:16:39;;;;;;;36.93;22.10;;;;;;;10.69;97.29;99601.94;5090750;28;20600;-60
2022/11/04 04:19:10;;;;;;;37.73;22.27;;;;;;;10.72;97.67;99601.81;5091667;28;20219;-60
2022/11/04 04:21:42;;;;;;;43.77;23.33;;;;;;;10.76;97.66;99603.47;5091804;28;20205;-60
2022/11/04 04:29:44;;;;;;;47.70;23.27;;;;;;;10.97;96.37;99598.53;5099649;28;20292;-61
2022/11/04 04:32:13;;;;;;;37.60;22.33;;;;;;;10.95;97.00;99603.78;5111294;27;20222;-61
2022/11/04 04:34:40;;;;;;;38.67;23.83;;;;;;;10.90;97.10;99609.13;5125070;27;20198;-61
2022/11/04 04:37:11;;;;;;;36.93;23.23;;;;;;;11.04;96.26;99607.88;5130646;27;20275;-60
2022/11/04 04:45:21;;;;;;;32.43;21.00;;;;;;;11.08;94.24;99604.28;5131531;27;20228;-67
2022/11/04 04:47:51;;;;;;;35.50;20.47;;;;;;;11.07;94.43;99607.75;5111773;28;20190;-59
2022/11/04 04:50:20;;;;;;;31.70;20.63;;;;;;;11.12;94.28;99609.34;5111485;28;20838;-64
2022/11/04 04:52:49;;;;;;;31.30;20.57;;;;;;;11.12;94.30;99611.09;5110422;28;20230;-57
2022/11/04 04:55:17;;;;;;;28.50;19.87;;;;;;;11.20;94.47;99614.31;5108909;28;20197;-58
2022/11/04 04:57:44;;;;;;;31.30;20.30;;;;;;;11.25;94.28;99612.44;5108020;28;20232;-58
2022/11/04 05:00:15;;;;;;;35.23;20.73;;;;;;;11.21;93.44;99584.81;5109719;28;20211;-64
2022/11/04 05:02:42;;;;;;;31.80;21.53;;;;;;;11.36;93.35;99606.91;5101845;28;20197;-58
2022/11/04 05:05:12;;;;;;;41.70;23.97;;;;;;;11.47;93.05;99608.28;5104771;28;20201;-58
2022/11/04 05:07:39;;;;;;;35.90;22.47;;;;;;;11.54;92.02;99611.53;5108989;28;20210;-58
2022/11/04 05:10:07;;;;;;;41.87;24.07;;;;;;;11.46;92.12;99606.56;5109439;27;20191;-59
2022/11/04 05:15:16;;;;;;;43.23;23.87;;;;;;;11.52;92.05;99614.16;5095718;27;20306;-63
2022/11/04 05:17:43;;;;;;;38.20;23.63;;;;;;;11.65;91.26;99602.50;5128244;27;20209;-64
2022/11/04 05:20:12;;;;;;;39.67;23.50;;;;;;;11.64;91.43;99616.38;5115301;27;20601;-59
2022/11/04 05:22:40;;;;;;;44.70;23.17;;;;;;;11.63;91.52;99624.22;5111869;28;20224;-60
2022/11/04 05:25:07;;;;;;;42.27;23.40;;;;;;;11.56;92.00;99621.00;5111748;28;20571;-59
2022/11/04 05:27:34;;;;;;;42.53;21.97;;;;;;;11.62;91.96;99623.38;5111634;28;20573;-58
2022/11/04 05:30:01;;;;;;;41.50;22.20;;;;;;;11.79;91.26;99620.28;5110849;28;20187;-63
2022/11/04 05:32:30;;;;;;;42.37;23.37;;;;;;;11.81;90.89;99615.91;5110169;28;20209;-63
2022/11/04 05:34:57;;;;;;;44.13;23.43;;;;;;;11.86;90.53;99627.00;5109391;28;20624;-63
2022/11/04 05:37:25;;;;;;;42.77;23.10;;;;;;;11.74;91.38;99631.72;5109936;28;20198;-63
2022/11/04 05:39:53;;;;;;;49.37;23.30;;;;;;;11.80;91.55;99631.56;5110100;28;20685;-63
2022/11/04 05:42:20;;;;;;;48.73;23.87;;;;;;;11.83;91.46;99626.25;5110363;28;20594;-63
2022/11/04 05:44:47;;;;;;;37.20;22.37;;;;;;;11.68;91.78;99621.50;5110687;28;20190;-59
2022/11/04 05:47:14;;;;;;;38.33;22.33;;;;;;;11.81;91.59;99639.31;5110370;28;20190;-58
2022/11/04 05:49:41;;;;;;;49.00;23.23;;;;;;;11.83;91.74;99650.53;5110498;28;20199;-59
2022/11/04 05:52:08;;;;;;;34.03;21.43;;;;;;;11.95;91.02;99642.31;5110449;28;20205;-63
2022/11/04 05:54:37;;;;;;;35.10;20.77;;;;;;;12.00;90.97;99643.00;5110371;28;20234;-63
2022/11/04 05:57:04;;;;;;;37.10;21.17;;;;;;;12.05;90.28;99647.22;5110277;28;20238;-64
2022/11/04 05:59:31;;;;;;;41.00;21.67;;;;;;;12.13;89.79;99648.66;5110469;28;20218;-63
2022/11/04 06:01:58;;;;;;;47.37;23.00;;;;;;;12.13;89.77;99653.03;5110365;28;20256;-63
2022/11/04 06:04:24;;;;;;;51.50;21.97;;;;;;;12.00;90.07;99642.16;5110445;28;20289;-59
2022/11/04 06:06:51;;;;;;;39.40;22.37;;;;;;;12.02;90.84;99652.53;5110277;28;20194;-59
2022/11/04 06:09:18;;;;;;;44.57;23.23;;;;;;;12.10;90.70;99663.50;5109921;28;20190;-64
2022/11/04 06:11:47;;;;;;;38.27;21.73;;;;;;;12.14;90.36;99667.72;5110143;28;20194;-58
2022/11/04 06:14:14;;;;;;;40.60;23.57;;;;;;;12.22;90.09;99669.16;5110270;28;20679;-59
2022/11/04 06:16:40;;;;;;;43.37;22.53;;;;;;;12.30;89.59;99674.97;5110116;28;20213;-58
2022/11/04 06:19:07;;;;;;;43.40;23.03;;;;;;;12.26;89.80;99668.19;5109783;28;20205;-59
2022/11/04 06:21:34;;;;;;;40.57;22.80;;;;;;;12.38;89.29;99676.47;5109975;28;20202;-59
2022/11/04 06:24:02;;;;;;;37.17;22.27;;;;;;;12.30;89.90;99685.38;5109727;28;20198;-59
2022/11/04 06:26:30;;;;;;;38.63;22.17;;;;;;;12.33;89.57;99684.44;5109720;28;20245;-59
2022/11/04 06:28:59;;;;;;;38.57;22.50;;;;;;;12.32;90.15;99686.19;5110059;28;20474;-63
2022/11/04 06:31:26;;;;;;;51.13;22.17;;;;;;;12.32;89.83;99682.72;5110099;28;20194;-63
2022/11/04 06:33:53;;;;;;;39.13;21.07;;;;;;;12.21;89.76;99684.84;5109822;28;20198;-63
2022/11/04 06:36:19;;;;;;;32.70;20.80;;;;;;;12.13;90.77;99682.50;5109635;28;20194;-59
2022/11/04 06:38:46;;;;;;;33.67;20.13;;;;;;;12.15;90.61;99677.25;5110915;28;20688;-58
2022/11/04 06:41:16;;;;;;;29.50;18.70;;;;;;;12.15;90.38;99670.28;5113968;28;20254;-63
2022/11/04 06:43:44;;;;;;;32.87;19.30;;;;;;;12.22;90.09;99676.97;5113917;28;20200;-63
2022/11/04 06:46:27;;;;;;;37.43;20.73;;;;;;;12.31;89.77;99689.69;5113865;28;20293;-63
2022/11/04 06:48:55;;;;;;;30.23;19.37;;;;;;;12.26;89.79;99678.59;5113963;28;20194;-63
2022/11/04 06:51:21;;;;;;;27.33;17.47;;;;;;;12.23;90.23;99683.88;5114085;28;20195;-63
2022/11/04 06:53:48;;;;;;;25.77;17.60;;;;;;;12.29;89.74;99686.31;5114285;28;20200;-63
2022/11/04 06:56:15;;;;;;;30.60;18.07;;;;;;;12.28;88.87;99666.38;5113658;28;20265;-63
2022/11/04 06:58:42;;;;;;;42.60;19.47;;;;;;;12.13;88.76;99646.06;5113969;28;20206;-63
2022/11/04 07:01:09;;;;;;;36.90;19.07;;;;;;;12.31;89.12;99692.28;5113697;28;20210;-63
2022/11/04 07:03:38;;;;;;;44.83;20.10;;;;;;;12.43;88.99;99695.38;5113703;28;20622;-62
2022/11/04 07:06:08;;;;;;;38.50;18.67;;;;;;;12.54;88.10;99695.88;5113853;28;20195;-63
2022/11/04 07:08:35;;;;;;;39.17;20.27;;;;;;;12.56;87.73;99687.13;5113572;28;20252;-63
2022/11/04 07:11:03;;;;;;;40.17;20.53;;;;;;;12.66;87.27;99690.25;5113621;27;20759;-63
2022/11/04 07:13:30;;;;;;;32.23;20.70;;;;;;;12.62;87.33;99686.06;5113710;28;20552;-63
2022/11/04 07:15:57;;;;;;;34.60;21.47;;;;;;;12.64;87.35;99689.47;5113431;27;20190;-63
2022/11/04 07:18:24;;;;;;;41.03;21.70;;;;;;;12.69;87.22;99687.53;5113245;28;20198;-64
2022/11/04 07:20:52;;;;;;;37.03;22.33;;;;;;;12.71;87.05;99680.53;5113441;27;20674;-63
2022/11/04 07:23:19;;;;;;;39.00;21.30;;;;;;;12.76;86.69;99673.41;5113282;28;20194;-63
2022/11/04 07:25:46;;;;;;;38.17;21.17;;;;;;;12.80;86.69;99677.59;5113289;27;20201;-63
2022/11/04 07:28:13;;;;;;;35.97;22.60;;;;;;;12.88;86.50;99678.19;5113046;28;20290;-63
2022/11/04 07:30:40;;;;;;;29.50;20.70;;;;;;;12.99;86.07;99664.75;5113005;28;20243;-63
2022/11/04 07:33:07;;;;;;;48.03;21.50;;;;;;;13.12;85.20;99670.38;5112929;28;20293;-63
2022/11/04 07:35:34;;;;;;;37.30;24.87;;;;;;;13.11;84.66;99643.47;5112980;27;20343;-63
2022/11/04 07:38:02;;;;;;;37.87;24.13;;;;;;;13.26;84.36;99648.16;5112923;28;20191;-63
2022/11/04 07:40:30;;;;;;;68.43;41.33;;;;;;;13.27;84.30;99641.19;5113001;28;20670;-63
2022/11/04 07:42:56;;;;;;;50.57;25.67;;;;;;;13.29;84.37;99645.44;5112994;28;20257;-63
2022/11/04 07:45:23;;;;;;;54.73;26.70;;;;;;;13.30;84.47;99638.47;5112808;28;20202;-63
2022/11/04 07:47:50;;;;;;;62.00;29.60;;;;;;;13.42;83.66;99638.00;5112660;28;20217;-63
2022/11/04 07:50:17;;;;;;;53.20;32.30;;;;;;;13.51;83.14;99637.66;5112928;28;20734;-63
2022/11/04 07:52:44;;;;;;;38.83;22.73;;;;;;;13.49;82.90;99636.84;5112750;28;20197;-63
2022/11/04 07:55:17;;;;;;;84.27;44.33;;;;;;;13.56;82.91;99635.69;5112668;28;20194;-62
2022/11/04 07:57:44;;;;;;;60.73;31.83;;;;;;;13.71;82.63;99635.09;5112301;27;20659;-63
2022/11/04 08:00:13;;;;;;;45.60;27.43;;;;;;;13.72;82.31;99628.97;5112366;27;20218;-63
2022/11/04 08:02:40;;;;;;;48.47;26.90;;;;;;;13.69;82.70;99626.47;5112361;28;20244;-63
2022/11/04 08:05:08;;;;;;;50.83;24.63;;;;;;;13.88;81.39;99600.53;5112637;28;20241;-64
2022/11/04 08:07:35;;;;;;;41.87;23.97;;;;;;;14.16;80.53;99611.50;5112633;28;20199;-63
2022/11/04 08:10:02;;;;;;;62.23;24.07;;;;;;;14.18;79.97;99616.66;5112519;28;20667;-63
2022/11/04 08:12:31;;;;;;;48.47;23.97;;;;;;;14.23;80.37;99604.25;5112367;28;20240;-63
2022/11/04 08:14:58;;;;;;;42.00;23.73;;;;;;;14.34;80.01;99603.78;5112507;27;20203;-64
2022/11/04 08:17:25;;;;;;;41.20;22.40;;;;;;;14.50;79.10;99605.72;5112453;28;20667;-59
2022/11/04 08:19:52;;;;;;;40.40;22.93;;;;;;;14.67;79.00;99601.53;5111982;28;20230;-63
2022/11/04 08:22:18;;;;;;;42.70;21.97;;;;;;;14.55;78.75;99596.84;5112076;28;20583;-63
2022/11/04 08:24:46;;;;;;;40.73;24.13;;;;;;;14.66;78.81;99595.47;5111822;28;20201;-63
2022/11/04 08:27:13;;;;;;;51.17;23.30;;;;;;;14.79;79.34;99599.22;5111909;28;20634;-63
2022/11/04 08:29:41;;;;;;;44.43;22.97;;;;;;;15.00;80.34;99597.41;5112184;28;20662;-63
2022/11/04 08:32:08;;;;;;;49.77;23.70;;;;;;;14.99;81.33;99597.47;5112160;28;20641;-63
2022/11/04 08:34:36;;;;;;;40.07;23.40;;;;;;;14.96;82.09;99580.16;5112215;28;20198;-63
2022/11/04 08:37:02;;;;;;;43.87;23.67;;;;;;;14.98;82.54;99590.56;5111764;27;20199;-63
2022/11/04 08:39:29;;;;;;;37.33;22.17;;;;;;;15.13;81.65;99588.06;5111864;28;20198;-63
2022/11/04 08:41:57;;;;;;;44.20;23.03;;;;;;;15.12;82.24;99581.16;5111990;28;20697;-64
2022/11/04 08:44:24;;;;;;;44.23;21.80;;;;;;;14.90;81.66;99541.22;5111742;28;20217;-63
2022/11/04 08:46:52;;;;;;;44.33;22.53;;;;;;;15.12;81.90;99575.91;5111748;28;20289;-64
2022/11/04 08:49:19;;;;;;;53.27;23.40;;;;;;;15.23;81.20;99573.69;5111520;28;20191;-66
2022/11/04 08:51:48;;;;;;;54.77;22.00;;;;;;;15.10;82.19;99564.72;5111564;28;20290;-58
2022/11/04 08:54:15;;;;;;;62.33;23.80;;;;;;;15.19;82.04;99563.41;5111517;28;20197;-59
2022/11/04 08:56:43;;;;;;;46.97;23.40;;;;;;;15.26;81.55;99560.44;5111317;28;20238;-59
2022/11/04 08:59:11;;;;;;;51.10;23.43;;;;;;;15.34;80.95;99560.09;5111465;28;20190;-59
2022/11/04 09:01:38;;;;;;;37.50;22.73;;;;;;;15.61;80.85;99556.16;5110938;28;20316;-59
2022/11/04 09:04:07;;;;;;;40.80;23.87;;;;;;;15.81;79.96;99547.34;5110636;28;20198;-59
2022/11/04 09:06:37;;;;;;;44.43;22.30;;;;;;;15.98;78.75;99549.97;5109791;28;20198;-59
2022/11/04 09:09:04;;;;;;;32.57;21.27;;;;;;;15.99;80.36;99550.81;5107364;28;20198;-59
2022/11/04 09:11:32;;;;;;;39.07;23.03;;;;;;;15.88;80.04;99545.28;5109506;28;20187;-59
2022/11/04 09:14:01;;;;;;;38.17;22.97;;;;;;;15.78;79.93;99544.88;5109961;28;20187;-59
2022/11/04 09:16:28;;;;;;;48.10;23.33;;;;;;;15.81;80.10;99539.47;5109752;28;20255;-59
2022/11/04 09:18:56;;;;;;;37.97;22.60;;;;;;;15.95;79.27;99530.94;5109526;28;20666;-59
2022/11/04 09:21:26;;;;;;;40.33;22.20;;;;;;;16.25;78.32;99531.16;5109436;28;20209;-60
2022/11/04 09:23:53;;;;;;;38.47;22.10;;;;;;;16.41;78.22;99532.06;5109960;28;20194;-61
2022/11/04 09:26:22;;;;;;;41.33;22.30;;;;;;;16.39;80.55;99520.78;5110021;28;20216;-59
2022/11/04 09:28:54;;;;;;;35.13;23.10;;;;;;;16.39;80.11;99518.19;5109929;28;20282;-59
2022/11/04 09:31:21;;;;;;;37.60;22.07;;;;;;;16.41;78.36;99516.34;5109807;28;20191;-60
2022/11/04 09:33:49;;;;;;;37.07;22.67;;;;;;;16.45;78.37;99519.66;5109789;28;20198;-59
2022/11/04 09:36:16;;;;;;;34.03;20.83;;;;;;;16.42;77.32;99517.19;5109722;28;20234;-59
2022/11/04 09:38:44;;;;;;;32.53;21.27;;;;;;;16.26;78.80;99514.50;5109990;28;20743;-59
2022/11/04 09:41:51;;;;;;;37.27;21.33;;;;;;;16.19;78.73;99505.28;5109747;28;20233;-61
2022/11/04 09:44:24;;;;;;;33.93;20.77;;;;;;;16.14;78.90;99487.19;5046159;28;20654;-59
2022/11/04 09:46:54;;;;;;;30.90;20.77;;;;;;;16.18;78.84;99493.97;5101321;28;20183;-59
2022/11/04 09:49:23;;;;;;;33.37;22.63;;;;;;;16.02;80.14;99492.22;5109147;28;20190;-59
2022/11/04 09:51:52;;;;;;;32.37;21.07;;;;;;;16.06;80.35;99491.13;5109025;28;20191;-59
2022/11/04 09:54:23;;;;;;;36.90;23.20;;;;;;;16.00;81.17;99486.22;5109370;28;20205;-64
2022/11/04 09:56:52;;;;;;;34.30;21.43;;;;;;;15.94;82.21;99480.34;5108729;28;20223;-64
2022/11/04 09:59:26;;;;;;;34.57;21.47;;;;;;;15.87;82.18;99473.75;5109089;28;20662;-63
2022/11/04 10:02:14;;;;;;;33.03;20.20;;;;;;;15.80;82.78;99469.72;5108671;28;20214;-59
2022/11/04 10:04:52;;;;;;;34.60;21.60;;;;;;;15.70;83.24;99458.03;5106983;28;20198;-60
2022/11/04 10:07:42;;;;;;;28.77;20.50;;;;;;;15.58;84.55;99445.56;5106831;28;20197;-59
2022/11/04 10:10:18;;;;;;;36.53;21.20;;;;;;;15.71;83.97;99451.88;5108380;28;20670;-60
2022/11/04 10:13:00;;;;;;;34.37;20.83;;;;;;;15.69;84.02;99445.88;5108515;28;20614;-59
2022/11/04 10:15:53;;;;;;;28.93;19.63;;;;;;;15.58;84.67;99440.34;5107578;28;20234;-60
2022/11/04 10:18:32;;;;;;;36.30;21.23;;;;;;;15.62;85.05;99434.06;5079433;28;20194;-59
2022/11/04 10:21:09;;;;;;;38.10;20.93;;;;;;;15.53;85.21;99422.25;5108609;28;20613;-59
2022/11/04 10:23:43;;;;;;;29.73;21.13;;;;;;;15.52;85.66;99424.94;5108604;28;20281;-65
2022/11/04 10:26:16;;;;;;;37.00;21.60;;;;;;;15.55;85.61;99414.38;5107230;28;20194;-65
2022/11/04 10:28:48;;;;;;;32.53;20.70;;;;;;;15.54;85.54;99417.88;5108404;28;20195;-64
2022/11/04 10:31:17;;;;;;;35.70;20.63;;;;;;;15.68;84.16;99410.22;5106462;28;20182;-64
2022/11/04 10:33:47;;;;;;;32.83;19.33;;;;;;;15.72;83.91;99403.03;5109375;28;20194;-64
2022/11/04 10:36:16;;;;;;;33.70;20.13;;;;;;;15.78;83.50;99400.94;5107301;28;20191;-64
2022/11/04 10:38:46;;;;;;;33.80;20.33;;;;;;;15.85;82.81;99397.09;5109527;28;20574;-64
2022/11/04 10:41:25;;;;;;;32.17;20.53;;;;;;;15.91;82.43;99381.03;5106806;28;20236;-64
2022/11/04 10:43:56;;;;;;;41.30;21.07;;;;;;;15.73;83.02;99381.16;5106831;28;20200;-64
2022/11/04 10:46:40;;;;;;;31.80;19.90;;;;;;;15.83;82.84;99370.13;5109152;28;20206;-64
2022/11/04 10:49:29;;;;;;;34.33;20.43;;;;;;;15.94;82.40;99375.66;5109026;28;20624;-65
2022/11/04 10:51:57;;;;;;;30.43;20.60;;;;;;;16.01;82.33;99364.88;5109289;28;20293;-65
2022/11/04 10:54:26;;;;;;;30.63;20.70;;;;;;;16.11;81.35;99368.69;5109317;28;20583;-64
2022/11/04 10:56:56;;;;;;;35.27;20.83;;;;;;;15.93;81.35;99344.31;5106517;28;20604;-64
2022/11/04 10:59:26;;;;;;;35.00;20.53;;;;;;;16.03;80.90;99332.41;5108853;28;20209;-64
2022/11/04 11:01:54;;;;;;;33.73;20.40;;;;;;;16.00;81.96;99352.72;5105820;28;20217;-58
2022/11/04 11:04:27;;;;;;;29.67;20.27;;;;;;;15.94;81.97;99351.25;5108215;28;20201;-59
2022/11/04 11:06:56;;;;;;;30.57;19.93;;;;;;;15.97;81.67;99348.47;5106119;28;20666;-60
2022/11/04 11:09:28;;;;;;;34.57;20.40;;;;;;;16.08;81.32;99334.81;5108027;28;20302;-60
2022/11/04 11:12:00;;;;;;;35.00;19.97;;;;;;;16.07;81.41;99336.56;5106251;28;20626;-60
2022/11/04 11:14:36;;;;;;;27.23;19.27;;;;;;;16.13;80.80;99323.16;5108105;28;20202;-60
2022/11/04 11:17:21;;;;;;;32.17;21.20;;;;;;;16.23;80.96;99332.22;5108413;28;20723;-60
2022/11/04 11:19:53;;;;;;;34.77;19.70;;;;;;;16.29;80.57;99333.63;5107731;28;20186;-60
2022/11/04 11:22:40;;;;;;;32.37;20.30;;;;;;;16.37;80.25;99328.81;5108020;28;20215;-58
2022/11/04 11:25:22;;;;;;;32.27;21.47;;;;;;;16.25;79.36;99282.38;5108783;28;20220;-58
2022/11/04 11:27:52;;;;;;;35.33;22.17;;;;;;;16.49;79.27;99319.41;5111949;28;20197;-58
2022/11/04 11:30:22;;;;;;;27.33;19.77;;;;;;;16.48;79.05;99310.72;5112245;28;20207;-59
2022/11/04 11:32:59;;;;;;;28.27;19.33;;;;;;;16.50;79.30;99305.41;5113196;28;20190;-59
2022/11/04 11:35:31;;;;;;;38.03;20.90;;;;;;;16.55;78.49;99301.59;5113232;28;20225;-60
2022/11/04 11:38:02;;;;;;;34.37;20.20;;;;;;;16.58;77.70;99292.72;5113235;28;20595;-59
2022/11/04 11:40:33;;;;;;;26.67;18.63;;;;;;;16.58;76.48;99288.34;5111091;28;20190;-64
2022/11/04 11:43:02;;;;;;;32.40;19.73;;;;;;;16.66;76.39;99291.38;5112716;27;20267;-64
2022/11/04 11:45:30;;;;;;;35.33;20.13;;;;;;;16.61;77.04;99284.66;5112931;28;20286;-64
2022/11/04 11:47:57;;;;;;;37.03;20.13;;;;;;;16.65;76.63;99288.84;5113113;28;20583;-64
2022/11/04 11:50:30;;;;;;;30.87;19.63;;;;;;;16.72;75.79;99284.94;5112875;28;20197;-64
2022/11/04 11:53:15;;;;;;;36.30;20.33;;;;;;;16.69;76.24;99280.72;5112857;28;20731;-64
2022/11/04 11:55:48;;;;;;;35.23;20.50;;;;;;;16.49;75.86;99240.81;5111904;28;20198;-59
2022/11/04 11:58:35;;;;;;;30.73;20.30;;;;;;;16.75;75.68;99278.69;5112611;28;20191;-60
2022/11/04 12:01:06;;;;;;;36.73;20.57;;;;;;;16.79;74.86;99264.47;5112609;28;20629;-59
2022/11/04 12:03:39;;;;;;;30.67;20.23;;;;;;;16.98;74.86;99260.69;5112478;27;20260;-64
2022/11/04 12:06:24;;;;;;;32.50;19.97;;;;;;;17.04;73.92;99255.06;5112481;28;20194;-64